createdAt,value
2023-02-24T00:02:05.423Z,76.35
2023-02-24T00:04:38.625Z,75.93
2023-02-24T00:07:07.477Z,77.12
2023-02-24T00:09:37.671Z,75.46
2023-02-24T00:12:08.896Z,75.51
2023-02-24T00:14:40.526Z,75.82
2023-02-24T00:17:10.117Z,76.18
2023-02-24T00:19:40.815Z,75.96
2023-02-24T00:22:10.237Z,75.13
2023-02-24T00:24:38.533Z,75.37
2023-02-24T00:27:11.686Z,75.41
2023-02-24T00:29:42.256Z,74.90
2023-02-24T00:32:23.096Z,76.09
2023-02-24T00:34:52.605Z,76.55
2023-02-24T00:37:26.670Z,75.59
2023-02-24T00:39:58.715Z,75.52
2023-02-24T00:42:29.726Z,75.42
2023-02-24T00:44:57.737Z,75.45
2023-02-24T00:47:27.306Z,75.69
2023-02-24T00:49:57.096Z,75.93
2023-02-24T00:52:28.073Z,76.50
2023-02-24T00:55:04.254Z,76.21
2023-02-24T00:57:35.629Z,75.79
2023-02-24T01:00:10.264Z,76.46
2023-02-24T01:02:38.485Z,76.04
2023-02-24T01:05:09.550Z,76.00
2023-02-24T01:07:37.707Z,76.80
2023-02-24T01:10:08.794Z,76.34
2023-02-24T01:12:49.619Z,77.21
2023-02-24T01:15:20.360Z,76.12
2023-02-24T01:17:49.128Z,77.48
2023-02-24T01:20:23.691Z,77.42
2023-02-24T01:22:54.724Z,77.74
2023-02-24T01:25:25.336Z,77.35
2023-02-24T01:27:54.428Z,77.50
2023-02-24T01:30:23.102Z,77.83
2023-02-24T01:32:51.671Z,76.94
2023-02-24T01:35:21.960Z,76.71
2023-02-24T01:37:50.330Z,77.30
2023-02-24T01:40:21.893Z,77.16
2023-02-24T01:42:52.799Z,76.09
2023-02-24T01:45:28.954Z,76.45
2023-02-24T01:48:01.938Z,76.54
2023-02-24T01:50:33.971Z,76.79
2023-02-24T01:53:06.497Z,75.96
2023-02-24T01:55:39.507Z,75.60
2023-02-24T01:58:12.656Z,75.24
2023-02-24T02:00:47.689Z,76.24
2023-02-24T02:03:29.646Z,76.23
2023-02-24T02:06:08.940Z,76.09
2023-02-24T02:08:42.088Z,76.18
2023-02-24T02:11:16.625Z,76.09
2023-02-24T02:13:57.515Z,76.10
2023-02-24T02:16:44.068Z,75.80
2023-02-24T02:19:58.167Z,75.90
2023-02-24T02:22:55.941Z,75.21
2023-02-24T02:25:38.866Z,75.08
2023-02-24T02:28:34.874Z,74.64
2023-02-24T02:31:32.575Z,73.93
2023-02-24T02:34:21.267Z,73.26
2023-02-24T02:37:02.213Z,74.26
2023-02-24T02:39:43.216Z,74.12
2023-02-24T02:42:27.249Z,73.90
2023-02-24T02:45:07.703Z,73.27
2023-02-24T02:47:48.122Z,73.99
2023-02-24T02:50:29.363Z,74.58
2023-02-24T02:53:07.126Z,73.69
2023-02-24T02:55:43.549Z,74.16
2023-02-24T02:58:18.203Z,74.36
2023-02-24T03:01:01.675Z,74.74
2023-02-24T03:03:34.247Z,74.75
2023-02-24T03:06:12.041Z,74.44
2023-02-24T03:08:46.682Z,74.27
2023-02-24T03:11:22.530Z,73.96
2023-02-24T03:14:07.513Z,73.00
2023-02-24T03:16:38.011Z,73.33
2023-02-24T03:19:10.359Z,72.70
2023-02-24T03:21:42.238Z,73.10
2023-02-24T03:24:10.768Z,73.20
2023-02-24T03:26:45.518Z,73.87
2023-02-24T03:29:19.307Z,74.14
2023-02-24T03:31:56.741Z,73.65
2023-02-24T03:34:34.960Z,74.11
2023-02-24T03:37:05.276Z,72.90
2023-02-24T03:39:33.859Z,73.44
2023-02-24T03:42:08.996Z,74.19
2023-02-24T03:44:37.349Z,72.75
2023-02-24T03:47:08.036Z,73.14
2023-02-24T03:49:38.696Z,73.96
2023-02-24T03:52:21.785Z,72.22
2023-02-24T03:55:16.799Z,71.91
2023-02-24T03:58:00.241Z,72.50
2023-02-24T04:00:38.634Z,72.27
2023-02-24T04:03:18.759Z,72.55
2023-02-24T04:05:56.738Z,73.28
2023-02-24T04:08:31.617Z,72.94
2023-02-24T04:11:10.621Z,73.34
2023-02-24T04:13:43.544Z,73.66
2023-02-24T04:16:18.413Z,74.08
2023-02-24T04:18:51.852Z,74.63
2023-02-24T04:21:25.088Z,74.63
2023-02-24T04:23:58.232Z,74.58
2023-02-24T04:26:31.512Z,76.11
2023-02-24T04:28:59.790Z,76.30
2023-02-24T04:31:32.320Z,76.25
2023-02-24T04:34:00.511Z,76.64
2023-02-24T04:36:29.278Z,76.79
2023-02-24T04:38:59.714Z,77.04
2023-02-24T04:41:30.445Z,76.49
2023-02-24T04:44:00.071Z,76.39
2023-02-24T04:46:29.861Z,77.11
2023-02-24T04:48:59.797Z,77.06
2023-02-24T04:51:31.782Z,77.38
2023-02-24T04:54:04.860Z,77.44
2023-02-24T04:56:32.816Z,76.66
2023-02-24T04:59:03.189Z,76.27
2023-02-24T05:01:36.969Z,76.69
2023-02-24T05:04:08.589Z,76.71
2023-02-24T05:06:41.022Z,76.87
2023-02-24T05:09:14.355Z,76.32
2023-02-24T05:11:45.749Z,77.26
2023-02-24T05:14:16.963Z,75.21
2023-02-24T05:16:46.922Z,76.07
2023-02-24T05:19:35.409Z,75.45
2023-02-24T05:22:07.077Z,75.80
2023-02-24T05:24:36.766Z,76.54
2023-02-24T05:27:08.533Z,75.65
2023-02-24T05:29:38.675Z,75.80
2023-02-24T05:32:08.559Z,76.18
2023-02-24T05:34:41.472Z,75.25
2023-02-24T05:37:10.669Z,75.27
2023-02-24T05:39:41.004Z,74.81
2023-02-24T05:42:12.167Z,75.77
2023-02-24T05:44:40.988Z,74.21
2023-02-24T05:47:10.637Z,74.66
2023-02-24T05:49:43.866Z,74.62
2023-02-24T05:52:14.315Z,74.61
2023-02-24T05:54:48.549Z,75.03
2023-02-24T05:57:20.678Z,75.64
2023-02-24T05:59:58.715Z,75.85
2023-02-24T06:02:31.325Z,74.55
2023-02-24T06:05:01.034Z,74.56
2023-02-24T06:07:35.860Z,74.09
2023-02-24T06:10:13.423Z,74.50
2023-02-24T06:12:47.626Z,74.29
2023-02-24T06:15:16.905Z,74.55
2023-02-24T06:17:46.849Z,75.43
2023-02-24T06:20:16.052Z,74.88
2023-02-24T06:22:45.313Z,75.39
2023-02-24T06:25:15.464Z,75.21
2023-02-24T06:27:43.722Z,75.77
2023-02-24T06:30:15.359Z,75.34
2023-02-24T06:32:49.837Z,75.23
2023-02-24T06:35:32.951Z,76.83
2023-02-24T06:38:01.927Z,76.85
2023-02-24T06:40:37.739Z,76.67
2023-02-24T06:43:05.830Z,75.68
2023-02-24T06:45:36.868Z,76.65
2023-02-24T06:48:08.484Z,77.18
2023-02-24T06:50:42.219Z,76.95
2023-02-24T06:53:17.510Z,77.74
2023-02-24T06:55:49.841Z,78.17
2023-02-24T06:58:22.458Z,77.92
2023-02-24T07:00:57.687Z,76.65
2023-02-24T07:03:39.412Z,77.32
2023-02-24T07:06:22.861Z,77.50
2023-02-24T07:08:53.448Z,77.23
2023-02-24T07:11:31.426Z,77.28
2023-02-24T07:14:00.942Z,76.98
2023-02-24T07:16:31.795Z,76.52
2023-02-24T07:19:04.064Z,74.98
2023-02-24T07:21:39.641Z,74.79
2023-02-24T07:24:14.494Z,75.53
2023-02-24T07:26:51.506Z,73.19
2023-02-24T07:29:19.493Z,72.81
2023-02-24T07:31:54.961Z,73.76
2023-02-24T07:34:27.839Z,73.21
2023-02-24T07:36:58.448Z,72.90
2023-02-24T07:39:29.898Z,73.33
2023-02-24T07:42:01.988Z,72.93
2023-02-24T07:44:31.303Z,73.74
2023-02-24T07:47:00.181Z,73.64
2023-02-24T07:49:30.949Z,74.12
2023-02-24T07:52:00.622Z,73.13
2023-02-24T07:54:30.269Z,71.30
2023-02-24T07:57:01.750Z,70.14
2023-02-24T07:59:33.649Z,70.65
2023-02-24T08:02:05.079Z,71.57
2023-02-24T08:04:43.851Z,69.82
2023-02-24T08:07:18.311Z,69.64
2023-02-24T08:10:03.932Z,70.50
2023-02-24T08:12:37.627Z,70.73
2023-02-24T08:15:17.649Z,70.82
2023-02-24T08:17:55.029Z,71.36
2023-02-24T08:20:27.210Z,67.12
2023-02-24T08:23:05.462Z,64.97
2023-02-24T08:25:39.118Z,66.16
2023-02-24T08:28:11.551Z,64.25
2023-02-24T08:30:45.050Z,65.20
2023-02-24T08:33:19.364Z,64.58
2023-02-24T08:36:03.028Z,65.16
2023-02-24T08:38:44.837Z,65.68
2023-02-24T08:41:17.981Z,65.80
2023-02-24T08:43:52.679Z,64.17
2023-02-24T08:46:27.653Z,64.68
2023-02-24T08:49:02.921Z,63.44
2023-02-24T08:51:37.617Z,65.14
2023-02-24T08:54:11.536Z,63.07
2023-02-24T08:56:49.930Z,62.05
2023-02-24T08:59:37.891Z,63.04
2023-02-24T09:02:18.592Z,62.92
2023-02-24T09:04:51.429Z,62.02
2023-02-24T09:07:24.275Z,61.73
2023-02-24T09:09:58.927Z,62.04
2023-02-24T09:12:34.715Z,62.12
2023-02-24T09:15:05.903Z,62.01
2023-02-24T09:17:50.972Z,62.11
2023-02-24T09:20:56.260Z,63.62
2023-02-24T09:23:32.383Z,62.28
2023-02-24T09:26:11.322Z,60.34
2023-02-24T09:28:49.018Z,60.77
2023-02-24T09:31:38.060Z,59.31
2023-02-24T09:34:07.451Z,58.96
2023-02-24T09:36:44.893Z,57.25
2023-02-24T09:39:15.079Z,56.56
2023-02-24T09:41:59.363Z,56.47
2023-02-24T09:44:36.239Z,57.94
2023-02-24T09:47:18.949Z,56.38
2023-02-24T09:49:57.197Z,57.59
2023-02-24T09:52:40.656Z,55.30
2023-02-24T09:55:26.087Z,56.88
2023-02-24T09:58:19.856Z,57.72
2023-02-24T10:00:59.528Z,58.44
2023-02-24T10:03:42.779Z,58.36
2023-02-24T10:06:23.136Z,58.67
2023-02-24T10:08:56.532Z,58.00
2023-02-24T10:11:33.958Z,58.18
2023-02-24T10:14:07.406Z,57.42
2023-02-24T10:16:44.964Z,58.63
2023-02-24T10:19:24.299Z,59.41
2023-02-24T10:22:10.017Z,59.44
2023-02-24T10:24:47.708Z,59.32
2023-02-24T10:27:23.735Z,60.16
2023-02-24T10:30:06.281Z,58.41
2023-02-24T10:32:41.940Z,56.99
2023-02-24T10:35:17.535Z,56.64
2023-02-24T10:37:46.630Z,55.55
2023-02-24T10:40:26.646Z,55.54
2023-02-24T10:43:10.614Z,56.10
2023-02-24T10:45:45.160Z,57.61
2023-02-24T10:48:40.772Z,57.84
2023-02-24T10:51:26.517Z,56.70
2023-02-24T10:54:22.342Z,56.04
2023-02-24T10:57:08.290Z,54.16
2023-02-24T11:00:19.979Z,54.53
2023-02-24T11:03:08.057Z,54.74
2023-02-24T11:06:07.050Z,55.02
2023-02-24T11:08:40.019Z,54.63
2023-02-24T11:11:25.395Z,54.13
2023-02-24T11:14:12.451Z,54.42
2023-02-24T11:17:04.075Z,55.14
2023-02-24T11:19:36.319Z,54.48
2023-02-24T11:22:09.015Z,53.06
2023-02-24T11:24:41.782Z,53.89
2023-02-24T11:27:12.348Z,52.92
2023-02-24T11:29:53.551Z,51.89
2023-02-24T11:32:40.003Z,51.91
2023-02-24T11:35:22.797Z,52.01
2023-02-24T11:38:05.299Z,52.21
2023-02-24T11:40:42.722Z,52.60
2023-02-24T11:43:18.678Z,51.16
2023-02-24T11:45:49.999Z,52.10
2023-02-24T11:48:32.933Z,51.88
2023-02-24T11:51:07.381Z,50.33
2023-02-24T11:53:38.497Z,51.35
2023-02-24T11:56:13.762Z,51.48
2023-02-24T11:58:47.490Z,51.81
2023-02-24T12:01:24.531Z,51.40
2023-02-24T12:04:02.934Z,51.08
2023-02-24T12:06:37.012Z,51.63
2023-02-24T12:09:14.160Z,50.32
2023-02-24T12:11:56.320Z,51.04
2023-02-24T12:14:34.950Z,49.97
2023-02-24T12:17:14.321Z,50.54
2023-02-24T12:19:53.720Z,51.60
2023-02-24T12:22:26.747Z,50.67
2023-02-24T12:24:55.760Z,51.39
2023-02-24T12:27:39.576Z,53.06
2023-02-24T12:30:48.878Z,53.08
2023-02-24T12:33:31.457Z,53.11
2023-02-24T12:36:06.348Z,52.44
2023-02-24T12:38:54.148Z,52.36
2023-02-24T12:42:02.722Z,53.64
2023-02-24T12:44:49.981Z,54.16
2023-02-24T12:47:27.593Z,53.41
2023-02-24T12:50:17.949Z,53.06
2023-02-24T12:53:03.240Z,54.08
2023-02-24T12:55:42.446Z,54.44
2023-02-24T12:58:26.498Z,54.02
2023-02-24T13:01:21.663Z,54.29
2023-02-24T13:04:17.509Z,54.17
2023-02-24T13:06:58.149Z,54.54
2023-02-24T13:09:35.914Z,55.55
2023-02-24T13:12:12.505Z,54.43
2023-02-24T13:14:45.739Z,55.54
2023-02-24T13:17:21.519Z,56.06
2023-02-24T13:19:52.271Z,55.46
2023-02-24T13:22:33.442Z,55.58
2023-02-24T13:25:13.935Z,55.32
2023-02-24T13:27:47.901Z,54.03
2023-02-24T13:30:33.597Z,55.83
2023-02-24T13:33:06.502Z,55.48
2023-02-24T13:35:37.581Z,55.46
2023-02-24T13:38:27.166Z,55.43
2023-02-24T13:41:08.449Z,55.35
2023-02-24T13:43:37.244Z,55.03
2023-02-24T13:46:19.787Z,54.81
2023-02-24T13:49:05.819Z,55.02
2023-02-24T13:51:54.647Z,55.20
2023-02-24T13:54:56.795Z,56.22
2023-02-24T13:57:46.044Z,55.98
2023-02-24T14:00:25.121Z,55.54
2023-02-24T14:02:53.764Z,55.62
2023-02-24T14:05:31.093Z,55.36
2023-02-24T14:08:05.832Z,56.40
2023-02-24T14:10:39.127Z,56.40
2023-02-24T14:13:18.955Z,56.56
2023-02-24T14:15:49.405Z,57.34
2023-02-24T14:18:22.007Z,57.60
2023-02-24T14:20:54.536Z,58.27
2023-02-24T14:23:26.892Z,59.01
2023-02-24T14:25:57.564Z,58.99
2023-02-24T14:28:31.336Z,58.63
2023-02-24T14:31:01.975Z,59.60
2023-02-24T14:33:40.097Z,59.49
2023-02-24T14:36:19.512Z,59.42
2023-02-24T14:38:48.585Z,59.44
2023-02-24T14:41:23.845Z,59.38
2023-02-24T14:43:53.151Z,60.11
2023-02-24T14:46:24.551Z,59.44
2023-02-24T14:49:00.434Z,60.05
2023-02-24T14:51:35.874Z,60.52
2023-02-24T14:54:15.452Z,60.70
2023-02-24T14:56:52.056Z,60.44
2023-02-24T14:59:33.448Z,60.90
2023-02-24T15:02:03.998Z,60.93
2023-02-24T15:04:36.718Z,60.21
2023-02-24T15:07:10.925Z,60.71
2023-02-24T15:09:47.373Z,60.45
2023-02-24T15:12:27.439Z,60.99
2023-02-24T15:15:01.973Z,60.23
2023-02-24T15:17:34.647Z,60.62
2023-02-24T15:20:05.837Z,60.95
2023-02-24T15:22:41.352Z,60.84
2023-02-24T15:25:37.238Z,61.26
2023-02-24T15:28:27.050Z,60.24
2023-02-24T15:31:05.634Z,60.48
2023-02-24T15:33:42.429Z,60.80
2023-02-24T15:36:26.432Z,60.70
2023-02-24T15:39:07.848Z,61.01
2023-02-24T15:41:41.439Z,60.66
2023-02-24T15:44:30.575Z,61.20
2023-02-24T15:47:00.239Z,61.59
2023-02-24T15:49:32.830Z,60.96
2023-02-24T15:52:05.550Z,61.41
2023-02-24T15:54:55.475Z,61.09
2023-02-24T15:57:28.122Z,61.44
2023-02-24T15:59:56.700Z,60.43
2023-02-24T16:02:32.086Z,60.56
2023-02-24T16:05:06.995Z,60.28
2023-02-24T16:07:41.912Z,60.08
2023-02-24T16:10:23.423Z,59.96
2023-02-24T16:13:16.393Z,59.83
2023-02-24T16:15:50.070Z,59.52
2023-02-24T16:18:23.095Z,59.37
2023-02-24T16:20:59.666Z,59.79
2023-02-24T16:23:34.056Z,59.26
2023-02-24T16:26:09.744Z,60.65
2023-02-24T16:28:40.566Z,62.94
2023-02-24T16:31:14.532Z,62.72
2023-02-24T16:33:54.506Z,66.90
2023-02-24T16:36:35.061Z,66.89
2023-02-24T16:39:07.981Z,69.46
2023-02-24T16:41:37.455Z,67.47
2023-02-24T16:44:10.967Z,69.26
2023-02-24T16:46:42.296Z,68.77
2023-02-24T16:49:18.067Z,72.20
2023-02-24T16:51:47.439Z,72.85
2023-02-24T16:54:29.650Z,73.72
2023-02-24T16:56:59.961Z,72.57
2023-02-24T16:59:31.960Z,73.04
2023-02-24T17:02:02.273Z,71.97
2023-02-24T17:04:32.344Z,73.08
2023-02-24T17:07:01.258Z,74.02
2023-02-24T17:09:36.454Z,77.05
2023-02-24T17:12:08.720Z,75.13
2023-02-24T17:14:39.401Z,75.62
2023-02-24T17:17:10.640Z,76.03
2023-02-24T17:19:39.475Z,75.95
2023-02-24T17:22:10.587Z,76.79
2023-02-24T17:24:45.474Z,76.58
2023-02-24T17:27:14.847Z,76.50
2023-02-24T17:29:43.080Z,77.30
2023-02-24T17:32:19.774Z,75.81
2023-02-24T17:34:48.218Z,76.65
2023-02-24T17:37:17.373Z,77.27
2023-02-24T17:39:46.199Z,75.79
2023-02-24T17:42:16.286Z,76.44
2023-02-24T17:44:46.359Z,77.17
2023-02-24T17:47:14.674Z,76.56
2023-02-24T17:49:43.802Z,76.75
2023-02-24T17:52:14.050Z,76.82
2023-02-24T17:54:43.290Z,77.15
2023-02-24T17:57:14.143Z,75.40
2023-02-24T17:59:48.914Z,76.52
2023-02-24T18:02:18.599Z,76.86
2023-02-24T18:04:47.670Z,76.82
2023-02-24T18:07:18.766Z,77.52
2023-02-24T18:09:49.525Z,76.62
2023-02-24T18:12:19.332Z,77.06
2023-02-24T18:14:59.027Z,76.80
2023-02-24T18:17:30.515Z,77.15
2023-02-24T18:19:58.650Z,76.85
2023-02-24T18:22:27.009Z,77.51
2023-02-24T18:24:55.543Z,77.71
2023-02-24T18:27:23.624Z,76.18
2023-02-24T18:29:52.998Z,77.57
2023-02-24T18:32:21.770Z,77.09
2023-02-24T18:34:50.479Z,76.78
2023-02-24T18:37:24.129Z,76.18
2023-02-24T18:39:56.989Z,76.43
2023-02-24T18:42:31.785Z,76.47
2023-02-24T18:45:01.246Z,76.33
2023-02-24T18:47:32.979Z,76.64
2023-02-24T18:50:01.124Z,76.25
2023-02-24T18:52:29.161Z,76.47
2023-02-24T18:54:57.656Z,76.55
2023-02-24T18:57:28.741Z,76.56
2023-02-24T18:59:57.895Z,77.03
2023-02-24T19:02:31.804Z,76.59
2023-02-24T19:05:00.245Z,76.73
2023-02-24T19:07:36.872Z,76.53
2023-02-24T19:10:08.456Z,75.92
2023-02-24T19:12:40.336Z,76.07
2023-02-24T19:15:10.611Z,76.11
2023-02-24T19:17:41.491Z,75.71
2023-02-24T19:20:17.513Z,75.57
2023-02-24T19:22:46.194Z,76.49
2023-02-24T19:25:15.270Z,76.20
2023-02-24T19:27:55.098Z,75.81
2023-02-24T19:30:23.195Z,75.47
2023-02-24T19:32:52.960Z,75.85
2023-02-24T19:35:22.218Z,76.42
2023-02-24T19:37:52.361Z,75.56
2023-02-24T19:40:22.132Z,75.21
2023-02-24T19:42:51.821Z,75.36
2023-02-24T19:45:20.365Z,75.92
2023-02-24T19:47:49.280Z,75.68
2023-02-24T19:50:19.431Z,75.20
2023-02-24T19:52:47.469Z,75.06
2023-02-24T19:55:18.472Z,75.94
2023-02-24T19:57:47.237Z,75.16
2023-02-24T20:00:20.918Z,75.93
2023-02-24T20:02:49.474Z,74.67
2023-02-24T20:05:19.304Z,75.16
2023-02-24T20:07:49.516Z,74.89
2023-02-24T20:10:19.012Z,74.83
2023-02-24T20:12:48.031Z,75.15
2023-02-24T20:15:16.727Z,75.33
2023-02-24T20:17:45.723Z,76.29
2023-02-24T20:20:14.041Z,75.98
2023-02-24T20:22:45.702Z,76.55
2023-02-24T20:25:17.577Z,75.87
2023-02-24T20:27:46.770Z,76.60
2023-02-24T20:30:17.542Z,75.95
2023-02-24T20:32:46.988Z,75.71
2023-02-24T20:35:15.954Z,74.76
2023-02-24T20:37:45.336Z,74.89
2023-02-24T20:40:14.000Z,74.90
2023-02-24T20:42:42.065Z,74.05
2023-02-24T20:45:12.306Z,74.10
2023-02-24T20:47:40.831Z,74.15
2023-02-24T20:50:11.411Z,74.59
2023-02-24T20:52:40.054Z,73.99
2023-02-24T20:55:10.608Z,74.22
2023-02-24T20:57:39.228Z,74.25
2023-02-24T21:00:08.227Z,74.19
2023-02-24T21:02:36.526Z,73.75
2023-02-24T21:05:04.769Z,73.77
2023-02-24T21:07:40.896Z,74.82
2023-02-24T21:10:12.811Z,74.79
2023-02-24T21:12:42.251Z,73.43
2023-02-24T21:15:12.569Z,72.59
2023-02-24T21:17:41.026Z,73.44
2023-02-24T21:20:11.993Z,73.12
2023-02-24T21:22:40.643Z,72.83
2023-02-24T21:25:12.523Z,72.89
2023-02-24T21:27:43.002Z,72.97
2023-02-24T21:30:14.026Z,72.09
2023-02-24T21:32:47.683Z,72.56
2023-02-24T21:35:16.130Z,72.98
2023-02-24T21:37:46.118Z,73.26
2023-02-24T21:40:17.971Z,73.17
2023-02-24T21:42:47.158Z,73.24
2023-02-24T21:45:16.583Z,75.25
2023-02-24T21:47:46.864Z,75.39
2023-02-24T21:50:17.104Z,74.60
2023-02-24T21:52:46.959Z,74.44
2023-02-24T21:55:20.031Z,74.30
2023-02-24T21:57:48.277Z,74.63
2023-02-24T22:00:24.742Z,74.71
2023-02-24T22:02:56.254Z,74.84
2023-02-24T22:05:26.091Z,75.10
2023-02-24T22:07:57.020Z,75.25
2023-02-24T22:10:28.619Z,75.05
2023-02-24T22:12:57.807Z,75.09
2023-02-24T22:15:26.847Z,74.79
2023-02-24T22:17:55.253Z,74.49
2023-02-24T22:20:28.996Z,75.90
2023-02-24T22:22:57.388Z,75.73
2023-02-24T22:25:28.120Z,75.74
2023-02-24T22:28:01.600Z,73.47
2023-02-24T22:30:34.830Z,72.67
2023-02-24T22:33:04.298Z,72.85
2023-02-24T22:35:34.794Z,72.03
2023-02-24T22:38:05.423Z,73.25
2023-02-24T22:40:34.991Z,72.13
2023-02-24T22:43:08.891Z,72.48
2023-02-24T22:45:37.148Z,72.61
2023-02-24T22:48:05.785Z,71.91
2023-02-24T22:50:33.758Z,71.38
2023-02-24T22:53:03.657Z,70.88
2023-02-24T22:55:34.052Z,70.57
2023-02-24T22:58:03.936Z,70.77
2023-02-24T23:00:32.074Z,70.50
2023-02-24T23:02:59.932Z,70.51
2023-02-24T23:05:29.975Z,70.08
2023-02-24T23:07:57.997Z,70.35
2023-02-24T23:10:31.139Z,70.95
2023-02-24T23:13:01.274Z,71.85
2023-02-24T23:15:29.485Z,71.66
2023-02-24T23:18:04.796Z,71.26
2023-02-24T23:20:32.717Z,72.46
2023-02-24T23:23:02.313Z,72.21
2023-02-24T23:25:31.041Z,72.24
2023-02-24T23:27:59.391Z,72.50
2023-02-24T23:30:30.921Z,71.82
2023-02-24T23:32:58.923Z,72.09
2023-02-24T23:35:28.293Z,72.22
2023-02-24T23:37:56.133Z,72.90
2023-02-24T23:40:26.231Z,71.99
2023-02-24T23:42:57.546Z,71.94
2023-02-24T23:45:28.636Z,71.93
2023-02-24T23:47:59.120Z,71.46
2023-02-24T23:50:28.902Z,72.05
2023-02-24T23:52:57.929Z,71.90
2023-02-24T23:55:31.740Z,71.41
2023-02-24T23:57:59.525Z,70.87
